Portage, Utah
Current Conditions -  °F | °C
As of 11:51 PM on Friday 28 Nov 2014 (Local Time) from KLGU Reporting Station
Clear Clear  
Wind Chill: 52°   Ceiling: Unl
Heat Index: 52°   Visibility: 10mi
Dew Point: 22°   Wind: 10mph
Humidity: 31%   Direction: 190°S
Pressure: 29.73"   Gusts: NA
Location:  41.98°N, 112.21°W
Report Text: KLGU 290651Z AUTO 19009KT 10SM CLR 11/M06 A2973 RMK AO2 SLP041 T01111056 401441017
Loading
Personal Weather Stations






























Interactive Weather Map New forecast layout! Learn more

10-Day Weather Forecast

Advertisements
Track Severe Weather on mobile